Terminal Aerodrome Forecast
Issued by NWS

Home | Current Version | Previous Version | Text Only | Print | Product List | Glossary On
Versions: 1 2 3 4 5 6 7 8 9 10 11 12 13 14 15
000
FTUS45 KTFX 301742
TAFGTF
TAF
KGTF 301742Z 3018/3118 33010KT P6SM FEW060 SCT200
     FM310800 34010KT P6SM BKN040
     FM311200 34010KT P6SM VCSH BKN025=

USA.gov is the U.S. government's official web portal to all federal, state and local government web resources and services.